Time;durP1;ratioP1;P1;durP2;ratioP2;P2;SDS_P1;SDS_P2;PMS_P1;PMS_P2;Temp;Humidity;BMP_temperature;BMP_pressure;BME280_temperature;BME280_humidity;BME280_pressure;Samples;Min_cycle;Max_cycle;Signal;HPM_P1;HPM_P2
2023/09/27 00:01:50;;;;;;;0.20;0.20;;;19.40;99.90;;;;;;4945106;28;20130;-91
2023/09/27 00:04:16;;;;;;;0.50;0.50;;;19.40;99.90;;;;;;4944322;28;20038;-91
2023/09/27 00:06:41;;;;;;;0.17;0.17;;;19.40;99.90;;;;;;4936427;28;20510;-92
2023/09/27 00:09:10;;;;;;;0.20;0.20;;;19.40;99.90;;;;;;4944062;28;20142;-91
2023/09/27 00:11:36;;;;;;;1.38;0.47;;;19.10;99.90;;;;;;4945331;28;20027;-90
2023/09/27 00:14:02;;;;;;;0.20;0.20;;;19.10;99.90;;;;;;4944615;28;20468;-91
2023/09/27 00:16:28;;;;;;;0.20;0.20;;;19.10;99.90;;;;;;4944723;28;20071;-91
2023/09/27 00:18:53;;;;;;;0.50;0.50;;;19.10;99.90;;;;;;4941813;28;20143;-91
2023/09/27 00:21:19;;;;;;;0.20;0.20;;;19.10;99.90;;;;;;4943121;28;20035;-91
2023/09/27 00:23:44;;;;;;;0.30;0.30;;;19.20;99.90;;;;;;4936029;28;20050;-91
2023/09/27 00:26:10;;;;;;;0.28;0.28;;;19.20;99.90;;;;;;4943596;28;20085;-91
2023/09/27 00:28:36;;;;;;;0.38;0.30;;;19.30;99.90;;;;;;4943426;28;20525;-91
2023/09/27 00:31:02;;;;;;;0.25;0.25;;;19.30;99.90;;;;;;4947782;28;20026;-91
2023/09/27 00:33:28;;;;;;;0.20;0.20;;;19.30;99.90;;;;;;4946101;28;20035;-91
2023/09/27 00:35:54;;;;;;;0.50;0.50;;;19.30;99.90;;;;;;4943071;28;20034;-90
2023/09/27 00:38:19;;;;;;;0.25;0.25;;;19.20;99.90;;;;;;4946210;28;20069;-91
2023/09/27 00:40:49;;;;;;;0.35;0.35;;;19.20;99.90;;;;;;4946741;28;20035;-91
2023/09/27 00:43:32;;;;;;;0.55;0.40;;;19.10;99.90;;;;;;4934511;28;20029;-92
2023/09/27 00:46:03;;;;;;;0.40;0.40;;;19.10;99.90;;;;;;4944407;28;20038;-91
2023/09/27 00:48:30;;;;;;;0.57;0.50;;;19.20;99.90;;;;;;4944940;28;20026;-91
2023/09/27 00:50:57;;;;;;;0.30;0.30;;;19.20;99.90;;;;;;4940291;28;20019;-91
2023/09/27 00:53:24;;;;;;;0.25;0.25;;;19.20;99.90;;;;;;4942541;28;20061;-91
2023/09/27 00:55:50;;;;;;;0.25;0.25;;;19.30;99.90;;;;;;4942091;28;20380;-91
2023/09/27 00:58:19;;;;;;;1.88;0.60;;;19.30;99.90;;;;;;4959710;28;20031;-91
2023/09/27 01:00:49;;;;;;;0.30;0.30;;;19.20;99.90;;;;;;4943881;28;20121;-90
2023/09/27 01:03:14;;;;;;;0.50;0.50;;;19.20;99.90;;;;;;4938625;28;20019;-91
2023/09/27 01:05:41;;;;;;;0.20;0.20;;;19.20;99.90;;;;;;4933475;28;20033;-91
2023/09/27 01:08:08;;;;;;;0.30;0.30;;;19.10;99.90;;;;;;4937803;28;20073;-91
2023/09/27 01:10:34;;;;;;;0.80;0.30;;;19.10;99.90;;;;;;4933665;28;20037;-91
2023/09/27 01:13:01;;;;;;;0.65;0.65;;;19.10;99.90;;;;;;4943560;28;20030;-91
2023/09/27 01:15:27;;;;;;;0.20;0.20;;;19.00;99.90;;;;;;4941740;28;20031;-92
2023/09/27 01:17:57;;;;;;;0.30;0.30;;;19.00;99.90;;;;;;4943982;28;20061;-91
2023/09/27 01:20:23;;;;;;;0.22;0.22;;;18.70;99.90;;;;;;4941549;28;20019;-91
2023/09/27 01:23:02;;;;;;;0.20;0.20;;;18.60;99.90;;;;;;4935035;28;20395;-92
2023/09/27 01:25:33;;;;;;;0.30;0.30;;;18.60;99.90;;;;;;4936069;28;20023;-91
2023/09/27 01:28:00;;;;;;;0.68;0.68;;;18.70;99.90;;;;;;4943126;28;20019;-91
2023/09/27 01:30:32;;;;;;;0.35;0.35;;;18.70;99.90;;;;;;4941549;28;20037;-90
2023/09/27 01:33:05;;;;;;;0.45;0.30;;;18.70;99.90;;;;;;4944794;28;20077;-92
2023/09/27 01:35:35;;;;;;;0.52;0.20;;;18.80;99.90;;;;;;4964332;28;20077;-90
2023/09/27 01:38:02;;;;;;;0.30;0.30;;;18.80;99.90;;;;;;4942377;28;20031;-91
2023/09/27 01:40:31;;;;;;;0.40;0.40;;;18.60;99.90;;;;;;4946485;28;20573;-91
2023/09/27 01:43:01;;;;;;;0.52;0.38;;;18.50;99.90;;;;;;4948514;28;20031;-91
2023/09/27 01:45:29;;;;;;;0.20;0.20;;;18.30;99.90;;;;;;4948644;28;20084;-91
2023/09/27 01:47:54;;;;;;;0.10;0.10;;;18.20;99.90;;;;;;4950486;28;20110;-91
2023/09/27 01:50:23;;;;;;;1.08;1.02;;;18.10;99.90;;;;;;4948590;28;20034;-91
2023/09/27 01:52:49;;;;;;;0.82;0.28;;;18.00;99.90;;;;;;4947498;28;20030;-91
2023/09/27 01:55:15;;;;;;;0.10;0.10;;;17.80;99.90;;;;;;4964522;28;20031;-91
2023/09/27 01:57:40;;;;;;;0.55;0.30;;;17.70;99.90;;;;;;4965535;28;20026;-90
2023/09/27 02:00:10;;;;;;;0.45;0.45;;;17.70;99.90;;;;;;4959075;28;20749;-91
2023/09/27 02:02:39;;;;;;;0.15;0.15;;;17.80;99.90;;;;;;4964230;28;20023;-91
2023/09/27 02:05:05;;;;;;;0.73;0.73;;;17.70;99.90;;;;;;4951381;28;20062;-92
2023/09/27 02:07:31;;;;;;;1.00;0.38;;;17.80;99.90;;;;;;4945220;28;20802;-91
2023/09/27 02:09:56;;;;;;;0.30;0.30;;;18.00;99.90;;;;;;4949498;28;20054;-91
2023/09/27 02:12:22;;;;;;;0.40;0.40;;;18.10;99.90;;;;;;4946854;28;20513;-91
2023/09/27 02:14:48;;;;;;;2.05;0.45;;;18.10;99.90;;;;;;4965176;28;20065;-91
2023/09/27 02:17:14;;;;;;;0.20;0.20;;;18.00;99.90;;;;;;4946502;28;20143;-91
2023/09/27 02:19:39;;;;;;;0.10;0.10;;;18.00;99.90;;;;;;4948633;28;20475;-91
2023/09/27 02:22:06;;;;;;;0.47;0.47;;;18.00;99.90;;;;;;4948055;28;20074;-91
2023/09/27 02:24:32;;;;;;;0.10;0.10;;;18.10;99.90;;;;;;4946198;28;20109;-91
2023/09/27 02:26:57;;;;;;;0.13;0.13;;;17.90;99.90;;;;;;4948075;28;20125;-91
2023/09/27 02:29:23;;;;;;;0.63;0.63;;;17.70;99.90;;;;;;4947683;28;20054;-91
2023/09/27 02:31:49;;;;;;;0.43;0.43;;;17.70;99.90;;;;;;4947054;28;20038;-91
2023/09/27 02:34:14;;;;;;;0.30;0.30;;;17.60;99.90;;;;;;4947278;28;20034;-91
2023/09/27 02:36:41;;;;;;;0.30;0.30;;;17.60;99.90;;;;;;4946765;28;20406;-92
2023/09/27 02:39:07;;;;;;;0.20;0.20;;;17.70;99.90;;;;;;4948217;28;20045;-91
2023/09/27 02:41:33;;;;;;;2.58;0.68;;;17.60;99.90;;;;;;4948867;28;20563;-90
2023/09/27 02:43:59;;;;;;;1.33;1.25;;;17.50;99.90;;;;;;4955200;28;20016;-91
2023/09/27 02:46:25;;;;;;;0.40;0.40;;;17.50;99.90;;;;;;4954426;28;20039;-91
2023/09/27 02:48:50;;;;;;;0.25;0.25;;;17.60;99.90;;;;;;4953280;28;20018;-91
2023/09/27 02:51:17;;;;;;;0.40;0.40;;;17.70;99.90;;;;;;4949057;28;20023;-90
2023/09/27 02:53:44;;;;;;;0.20;0.20;;;17.80;99.90;;;;;;4952651;28;20031;-91
2023/09/27 02:56:11;;;;;;;0.20;0.20;;;17.80;99.90;;;;;;4950497;28;20041;-91
2023/09/27 02:58:37;;;;;;;1.75;0.50;;;17.70;99.90;;;;;;4951559;28;20505;-91
2023/09/27 03:01:04;;;;;;;0.30;0.30;;;17.70;99.90;;;;;;4950968;28;20031;-91
2023/09/27 03:03:30;;;;;;;0.60;0.60;;;17.70;99.90;;;;;;4953318;28;20313;-91
2023/09/27 03:05:59;;;;;;;0.30;0.30;;;17.80;99.90;;;;;;4950992;28;20027;-91
2023/09/27 03:08:25;;;;;;;0.20;0.20;;;17.70;99.90;;;;;;4949977;28;20577;-91
2023/09/27 03:10:51;;;;;;;0.70;0.52;;;17.70;99.90;;;;;;4948968;28;20031;-90
2023/09/27 03:13:18;;;;;;;0.60;0.57;;;17.70;99.90;;;;;;4951016;28;20062;-91
2023/09/27 03:15:44;;;;;;;0.28;0.28;;;17.70;99.90;;;;;;4948849;28;20411;-91
2023/09/27 03:18:12;;;;;;;0.30;0.30;;;17.70;99.90;;;;;;4954321;28;20002;-91
2023/09/27 03:20:40;;;;;;;0.45;0.45;;;17.60;99.90;;;;;;4959768;28;20721;-91
2023/09/27 03:23:06;;;;;;;0.80;0.80;;;17.60;99.90;;;;;;4944385;28;20030;-92
2023/09/27 03:25:32;;;;;;;0.20;0.20;;;17.60;99.90;;;;;;4949776;28;20053;-91
2023/09/27 03:27:58;;;;;;;0.20;0.20;;;17.60;99.90;;;;;;4948737;28;20062;-91
2023/09/27 03:30:24;;;;;;;0.43;0.43;;;17.60;99.90;;;;;;4949017;28;20085;-91
2023/09/27 03:32:49;;;;;;;0.63;0.43;;;17.70;99.90;;;;;;4948842;28;20451;-91
2023/09/27 03:35:15;;;;;;;0.20;0.20;;;17.80;99.90;;;;;;4964324;28;20054;-91
2023/09/27 03:37:41;;;;;;;0.30;0.30;;;17.90;99.90;;;;;;4948559;28;20122;-90
2023/09/27 03:40:13;;;;;;;0.20;0.20;;;18.00;99.90;;;;;;4949131;28;20479;-91
2023/09/27 03:42:43;;;;;;;0.30;0.30;;;17.90;99.90;;;;;;4948990;28;20038;-90
2023/09/27 03:45:09;;;;;;;0.28;0.28;;;18.00;99.90;;;;;;4945461;28;20090;-92
2023/09/27 03:47:35;;;;;;;0.60;0.60;;;17.90;99.90;;;;;;4949450;28;20027;-92
2023/09/27 03:50:01;;;;;;;1.30;0.55;;;18.00;99.90;;;;;;4947328;28;20058;-91
2023/09/27 03:52:26;;;;;;;0.47;0.47;;;18.10;99.90;;;;;;4948418;28;20022;-91
2023/09/27 03:54:52;;;;;;;0.40;0.40;;;18.20;99.90;;;;;;4939051;28;20034;-91
2023/09/27 03:57:18;;;;;;;0.40;0.35;;;18.10;99.90;;;;;;4966144;28;20042;-91
2023/09/27 03:59:43;;;;;;;0.30;0.30;;;18.10;99.90;;;;;;4947747;28;20039;-91
2023/09/27 04:02:09;;;;;;;0.90;0.90;;;18.00;99.90;;;;;;4947632;28;20078;-90
2023/09/27 04:04:34;;;;;;;0.40;0.40;;;18.00;99.90;;;;;;4948759;28;20280;-90
2023/09/27 04:07:00;;;;;;;1.08;1.00;;;17.80;99.90;;;;;;4948406;28;20019;-92
2023/09/27 04:09:27;;;;;;;0.47;0.47;;;17.90;99.90;;;;;;4947934;28;20944;-91
2023/09/27 04:11:52;;;;;;;0.17;0.17;;;18.00;99.90;;;;;;4949652;28;20081;-91
2023/09/27 04:14:18;;;;;;;0.20;0.20;;;18.10;99.90;;;;;;4948740;28;20298;-91
2023/09/27 04:16:43;;;;;;;0.45;0.30;;;18.10;99.90;;;;;;4963364;28;20031;-92
2023/09/27 04:19:09;;;;;;;1.08;0.45;;;18.10;99.90;;;;;;4949980;28;20252;-91
2023/09/27 04:21:35;;;;;;;0.32;0.32;;;18.20;99.90;;;;;;4903815;28;1293359;-91
2023/09/27 04:24:03;;;;;;;0.63;0.47;;;18.10;99.90;;;;;;4946481;28;20031;-91
2023/09/27 04:26:30;;;;;;;0.32;0.32;;;18.10;99.90;;;;;;4947758;28;20027;-91
2023/09/27 04:28:59;;;;;;;0.60;0.60;;;18.10;99.90;;;;;;4948534;28;20019;-92
2023/09/27 04:31:26;;;;;;;0.50;0.50;;;18.00;99.90;;;;;;4949514;28;20076;-91
2023/09/27 04:33:51;;;;;;;0.40;0.40;;;18.00;99.90;;;;;;4949250;28;20062;-91
2023/09/27 04:36:17;;;;;;;0.47;0.47;;;18.00;99.90;;;;;;4949818;28;20035;-91
2023/09/27 04:38:44;;;;;;;0.30;0.30;;;17.90;99.90;;;;;;4948814;28;20038;-90
2023/09/27 04:41:11;;;;;;;0.38;0.38;;;17.90;99.90;;;;;;4950111;28;20027;-90
2023/09/27 04:43:36;;;;;;;0.43;0.43;;;17.80;99.90;;;;;;4948784;28;20022;-91
2023/09/27 04:46:02;;;;;;;0.25;0.25;;;17.70;99.90;;;;;;4962434;28;20494;-91
2023/09/27 04:48:29;;;;;;;0.75;0.40;;;17.60;99.90;;;;;;4965863;28;20019;-91
2023/09/27 04:50:57;;;;;;;0.40;0.40;;;17.70;99.90;;;;;;4949057;28;20033;-91
2023/09/27 04:53:23;;;;;;;0.95;0.95;;;17.60;99.90;;;;;;4947199;28;20031;-91
2023/09/27 04:55:49;;;;;;;0.20;0.20;;;17.50;99.90;;;;;;4946917;28;20038;-92
2023/09/27 04:58:15;;;;;;;0.30;0.30;;;17.60;99.90;;;;;;4964015;28;20166;-91
2023/09/27 05:00:40;;;;;;;0.10;0.10;;;17.60;99.90;;;;;;4949446;28;20113;-91
2023/09/27 05:03:07;;;;;;;1.65;0.88;;;17.60;99.90;;;;;;4971528;28;20031;-92
2023/09/27 05:05:32;;;;;;;0.30;0.30;;;17.60;99.90;;;;;;4951594;28;20546;-92
2023/09/27 05:07:58;;;;;;;0.30;0.30;;;17.50;99.90;;;;;;4964463;28;20166;-91
2023/09/27 05:10:24;;;;;;;0.30;0.30;;;17.60;99.90;;;;;;4965065;28;20048;-89
2023/09/27 05:12:49;;;;;;;2.65;0.50;;;17.50;99.90;;;;;;4947099;28;20507;-92
2023/09/27 05:15:16;;;;;;;0.50;0.50;;;17.40;99.90;;;;;;4946063;28;20367;-91
2023/09/27 05:17:41;;;;;;;0.25;0.25;;;17.30;99.90;;;;;;4945932;28;20031;-91
2023/09/27 05:20:10;;;;;;;1.35;0.93;;;17.30;99.90;;;;;;4955109;28;20411;-91
2023/09/27 05:22:40;;;;;;;0.30;0.30;;;17.40;99.90;;;;;;4947135;28;20031;-91
2023/09/27 05:25:08;;;;;;;0.43;0.38;;;17.40;99.90;;;;;;4949097;28;20119;-91
2023/09/27 05:27:34;;;;;;;0.73;0.43;;;17.40;99.90;;;;;;4942726;28;20019;-91
2023/09/27 05:30:00;;;;;;;0.40;0.40;;;17.50;99.90;;;;;;4956527;28;20023;-91
2023/09/27 05:32:27;;;;;;;0.20;0.20;;;17.60;99.90;;;;;;4946667;28;20050;-91
2023/09/27 05:34:53;;;;;;;0.30;0.30;;;17.70;99.90;;;;;;4947324;28;20031;-91
2023/09/27 05:37:18;;;;;;;0.35;0.35;;;17.80;99.90;;;;;;4947695;28;20038;-92
2023/09/27 05:39:44;;;;;;;0.70;0.50;;;17.80;99.90;;;;;;4948363;28;20475;-91
2023/09/27 05:42:10;;;;;;;0.43;0.43;;;17.70;99.90;;;;;;4948859;28;20177;-91
2023/09/27 05:44:35;;;;;;;0.43;0.43;;;17.60;99.90;;;;;;4946345;28;20825;-91
2023/09/27 05:47:01;;;;;;;0.20;0.20;;;17.50;99.90;;;;;;4948574;28;20027;-91
2023/09/27 05:49:26;;;;;;;0.60;0.47;;;17.60;99.90;;;;;;4949023;28;20418;-91
2023/09/27 05:51:52;;;;;;;0.32;0.32;;;17.70;99.90;;;;;;4947382;28;20109;-91
2023/09/27 05:54:21;;;;;;;0.45;0.45;;;17.70;99.90;;;;;;4948474;28;20042;-91
2023/09/27 05:56:51;;;;;;;0.30;0.30;;;17.80;99.90;;;;;;4946307;28;20035;-91
2023/09/27 05:59:17;;;;;;;0.50;0.45;;;17.80;99.90;;;;;;4947753;28;20035;-91
2023/09/27 06:01:43;;;;;;;0.45;0.45;;;17.80;99.90;;;;;;4947478;28;20143;-90
2023/09/27 06:04:10;;;;;;;0.20;0.20;;;17.60;99.90;;;;;;4948363;28;20077;-92
2023/09/27 06:06:36;;;;;;;0.50;0.50;;;17.50;99.90;;;;;;4948145;28;20023;-91
2023/09/27 06:09:05;;;;;;;0.85;0.85;;;17.40;99.90;;;;;;4947780;28;20479;-91
2023/09/27 06:11:35;;;;;;;0.20;0.20;;;17.30;99.90;;;;;;4948272;28;20024;-91
2023/09/27 06:14:01;;;;;;;0.30;0.30;;;17.20;99.90;;;;;;4941192;28;20084;-91
2023/09/27 06:16:26;;;;;;;3.40;0.85;;;17.20;99.90;;;;;;4949533;28;20077;-91
2023/09/27 06:18:53;;;;;;;0.25;0.25;;;17.10;99.90;;;;;;4951612;28;20027;-90
2023/09/27 06:21:18;;;;;;;0.85;0.85;;;17.10;99.90;;;;;;4949513;28;20034;-91
2023/09/27 06:23:44;;;;;;;0.65;0.65;;;17.10;99.90;;;;;;4951887;28;20033;-91
2023/09/27 06:26:10;;;;;;;0.20;0.20;;;17.20;99.90;;;;;;4967564;28;20153;-91
2023/09/27 06:28:39;;;;;;;0.20;0.20;;;17.30;99.90;;;;;;4951624;28;20019;-91
2023/09/27 06:31:08;;;;;;;0.52;0.52;;;17.30;99.90;;;;;;4950762;28;20035;-91
2023/09/27 06:33:38;;;;;;;1.48;0.40;;;17.40;99.90;;;;;;4968273;28;20704;-91
2023/09/27 06:36:08;;;;;;;0.40;0.40;;;17.50;99.90;;;;;;4949436;28;20027;-91
2023/09/27 06:38:33;;;;;;;0.65;0.52;;;17.70;99.90;;;;;;4967037;28;20062;-91
2023/09/27 06:41:00;;;;;;;0.30;0.30;;;17.70;99.90;;;;;;4957271;28;20688;-91
2023/09/27 06:43:28;;;;;;;1.10;0.68;;;17.80;99.90;;;;;;4952275;28;20223;-90
2023/09/27 06:45:54;;;;;;;0.90;0.88;;;17.80;99.90;;;;;;4983018;28;20035;-90
2023/09/27 06:48:20;;;;;;;0.20;0.20;;;17.90;99.90;;;;;;4971661;28;20027;-92
2023/09/27 06:50:47;;;;;;;0.85;0.85;;;18.00;99.90;;;;;;4987651;28;20018;-91
2023/09/27 06:53:13;;;;;;;0.47;0.47;;;18.00;99.90;;;;;;4957003;28;20026;-92
2023/09/27 06:55:39;;;;;;;0.60;0.60;;;18.00;99.90;;;;;;4952417;28;20824;-91
2023/09/27 06:58:05;;;;;;;0.90;0.52;;;18.00;99.90;;;;;;4953793;28;20031;-92
2023/09/27 07:00:31;;;;;;;0.30;0.30;;;18.00;99.90;;;;;;4949958;28;20533;-91
2023/09/27 07:02:59;;;;;;;0.47;0.47;;;18.00;99.90;;;;;;4968793;28;20015;-91
2023/09/27 07:05:26;;;;;;;1.40;1.23;;;18.00;99.90;;;;;;4945696;28;20061;-91
2023/09/27 07:07:53;;;;;;;0.55;0.50;;;18.00;99.90;;;;;;4951225;28;20098;-92
2023/09/27 07:10:20;;;;;;;0.50;0.50;;;18.00;99.90;;;;;;4965680;28;20395;-92
2023/09/27 07:12:46;;;;;;;0.32;0.32;;;18.00;99.90;;;;;;4951407;28;20034;-92
2023/09/27 07:15:13;;;;;;;0.30;0.30;;;18.10;99.90;;;;;;4952749;28;20025;-92
2023/09/27 07:17:40;;;;;;;1.15;0.82;;;18.10;99.90;;;;;;4951270;28;20023;-92
2023/09/27 07:23:15;;;;;;;0.63;0.63;;;18.00;99.90;;;;;;4926320;28;20090;-92
2023/09/27 07:25:44;;;;;;;1.25;0.88;;;18.10;99.90;;;;;;4951092;28;20054;-91
2023/09/27 07:28:11;;;;;;;0.40;0.40;;;18.00;99.90;;;;;;4952018;28;20018;-92
2023/09/27 07:30:37;;;;;;;5.25;0.98;;;18.00;99.90;;;;;;4951480;28;20031;-91
2023/09/27 07:33:08;;;;;;;0.40;0.40;;;17.90;99.90;;;;;;4949304;28;20547;-91
2023/09/27 07:35:35;;;;;;;2.22;2.05;;;17.90;99.90;;;;;;4950601;28;20032;-91
2023/09/27 07:38:01;;;;;;;0.50;0.50;;;18.00;99.90;;;;;;4964511;28;20514;-91
2023/09/27 07:40:27;;;;;;;0.50;0.50;;;18.00;99.90;;;;;;4951373;28;20031;-91
2023/09/27 07:42:53;;;;;;;0.75;0.75;;;17.90;99.90;;;;;;4950030;28;20476;-91
2023/09/27 07:45:22;;;;;;;0.28;0.28;;;17.90;99.90;;;;;;4951487;28;20078;-91
2023/09/27 07:47:53;;;;;;;0.40;0.40;;;17.90;99.90;;;;;;4951930;28;20058;-92
2023/09/27 07:50:27;;;;;;;1.25;0.65;;;17.90;99.90;;;;;;4951308;28;20023;-91
2023/09/27 07:52:54;;;;;;;0.20;0.20;;;18.00;99.90;;;;;;4951232;28;20156;-91
2023/09/27 07:55:21;;;;;;;0.35;0.35;;;18.00;99.90;;;;;;4942804;28;20042;-91
2023/09/27 07:57:47;;;;;;;0.60;0.60;;;18.00;99.90;;;;;;4951462;28;20575;-91
2023/09/27 08:00:18;;;;;;;0.70;0.70;;;18.00;99.90;;;;;;4950102;28;20101;-91
2023/09/27 08:02:50;;;;;;;0.65;0.65;;;18.10;99.90;;;;;;4945766;28;20483;-91
2023/09/27 08:05:16;;;;;;;0.45;0.45;;;18.20;99.90;;;;;;4944775;28;20030;-92
2023/09/27 08:07:46;;;;;;;0.45;0.45;;;18.30;99.90;;;;;;4948892;28;20398;-91
2023/09/27 08:10:12;;;;;;;0.30;0.30;;;18.30;99.90;;;;;;4950231;28;20256;-91
2023/09/27 08:12:38;;;;;;;1.17;0.63;;;18.40;99.90;;;;;;4951261;28;20462;-91
2023/09/27 08:15:05;;;;;;;0.38;0.38;;;18.40;99.90;;;;;;4950757;28;20065;-91
2023/09/27 08:17:32;;;;;;;1.10;1.10;;;18.40;99.90;;;;;;4942440;28;20031;-92
2023/09/27 08:20:00;;;;;;;0.73;0.73;;;18.40;99.90;;;;;;4950960;28;20042;-91
2023/09/27 08:22:26;;;;;;;0.50;0.50;;;18.50;99.90;;;;;;4964833;28;20031;-92
2023/09/27 08:24:51;;;;;;;0.52;0.52;;;18.50;99.90;;;;;;4967435;28;20019;-91
2023/09/27 08:27:17;;;;;;;0.32;0.32;;;18.70;99.90;;;;;;4960303;28;20026;-92
2023/09/27 08:29:46;;;;;;;0.50;0.50;;;18.70;99.90;;;;;;4949312;28;20030;-91
2023/09/27 08:32:12;;;;;;;0.43;0.30;;;18.70;99.90;;;;;;4948686;28;20097;-91
2023/09/27 08:34:38;;;;;;;0.95;0.95;;;18.80;99.90;;;;;;4965600;28;20026;-91
2023/09/27 08:37:04;;;;;;;0.80;0.60;;;18.90;99.90;;;;;;4947015;28;20030;-89
2023/09/27 08:39:30;;;;;;;0.35;0.35;;;18.90;99.90;;;;;;4949464;28;20510;-92
2023/09/27 08:41:58;;;;;;;0.43;0.43;;;19.00;99.90;;;;;;4949451;28;20023;-91
2023/09/27 08:44:24;;;;;;;0.82;0.82;;;19.10;99.90;;;;;;4950027;28;20030;-92
2023/09/27 08:46:54;;;;;;;2.92;1.77;;;19.20;99.90;;;;;;4949378;28;20053;-92
2023/09/27 08:49:20;;;;;;;0.20;0.20;;;19.30;99.90;;;;;;4950364;28;20058;-91
2023/09/27 08:51:47;;;;;;;1.60;0.88;;;19.40;99.90;;;;;;4962408;28;20488;-92
2023/09/27 08:54:17;;;;;;;0.60;0.60;;;19.40;99.90;;;;;;4948353;28;20114;-92
2023/09/27 08:56:51;;;;;;;0.50;0.50;;;19.50;99.90;;;;;;4957019;28;20110;-90
2023/09/27 08:59:18;;;;;;;1.08;0.95;;;19.60;99.90;;;;;;4966928;28;20034;-90
2023/09/27 09:01:45;;;;;;;0.52;0.52;;;19.80;99.90;;;;;;4949321;28;20030;-90
2023/09/27 09:04:11;;;;;;;0.93;0.93;;;19.90;99.90;;;;;;4948973;28;20443;-91
2023/09/27 09:06:40;;;;;;;0.43;0.43;;;20.10;99.90;;;;;;4948433;28;20391;-91
2023/09/27 09:09:12;;;;;;;0.30;0.30;;;20.30;99.90;;;;;;4949582;28;20078;-91
2023/09/27 09:11:54;;;;;;;0.70;0.70;;;20.40;99.90;;;;;;4948098;28;20030;-92
2023/09/27 09:14:43;;;;;;;0.55;0.55;;;20.40;99.90;;;;;;4949197;28;20041;-90
2023/09/27 09:17:17;;;;;;;0.82;0.82;;;20.50;99.90;;;;;;4940348;28;20309;-91
2023/09/27 09:19:43;;;;;;;0.40;0.40;;;20.60;99.90;;;;;;4949240;28;20041;-92
2023/09/27 09:22:11;;;;;;;1.58;0.68;;;20.60;99.90;;;;;;4948126;28;20030;-91
2023/09/27 09:24:45;;;;;;;1.08;0.88;;;20.70;99.90;;;;;;4949309;28;20427;-91
2023/09/27 09:27:16;;;;;;;0.90;0.90;;;20.80;99.90;;;;;;4947080;28;20143;-91
2023/09/27 09:29:45;;;;;;;0.35;0.35;;;20.90;99.90;;;;;;4953872;28;20034;-92
2023/09/27 09:32:13;;;;;;;0.60;0.60;;;21.00;99.90;;;;;;4949810;28;20042;-92
2023/09/27 09:34:49;;;;;;;0.70;0.70;;;21.10;99.90;;;;;;4963774;28;20021;-92
2023/09/27 09:37:17;;;;;;;0.50;0.50;;;21.30;99.90;;;;;;4971528;28;20258;-92
2023/09/27 09:39:43;;;;;;;0.85;0.60;;;21.50;99.90;;;;;;4988329;28;20011;-91
2023/09/27 09:42:09;;;;;;;5.20;0.73;;;21.70;99.90;;;;;;4951062;28;20479;-92
2023/09/27 09:44:35;;;;;;;0.75;0.60;;;21.90;99.90;;;;;;4962863;28;20034;-92
2023/09/27 09:47:11;;;;;;;0.52;0.50;;;22.10;99.90;;;;;;4949004;28;20244;-92
2023/09/27 09:49:37;;;;;;;0.80;0.80;;;22.30;99.90;;;;;;4949074;28;20103;-91
2023/09/27 09:52:05;;;;;;;0.70;0.70;;;22.50;99.90;;;;;;4950293;28;20091;-92
2023/09/27 09:54:37;;;;;;;1.10;1.08;;;22.80;99.90;;;;;;4968601;28;20019;-92
2023/09/27 09:57:05;;;;;;;0.50;0.50;;;23.00;99.90;;;;;;4950870;28;20054;-92
2023/09/27 09:59:41;;;;;;;0.63;0.63;;;23.10;99.90;;;;;;4953239;28;20019;-92
2023/09/27 10:02:23;;;;;;;1.40;1.38;;;23.10;99.90;;;;;;4946878;28;20070;-92
2023/09/27 10:04:55;;;;;;;0.70;0.70;;;23.10;99.90;;;;;;4952309;28;20039;-92
2023/09/27 10:07:22;;;;;;;0.68;0.68;;;23.00;99.90;;;;;;4967908;28;20106;-92
2023/09/27 10:09:49;;;;;;;0.70;0.70;;;23.10;99.90;;;;;;4952166;28;20510;-92
2023/09/27 10:12:17;;;;;;;0.70;0.70;;;23.20;99.90;;;;;;4951591;28;20050;-92
2023/09/27 10:14:44;;;;;;;0.70;0.70;;;23.40;99.90;;;;;;4951889;28;20113;-91
2023/09/27 10:17:25;;;;;;;0.90;0.90;;;23.70;99.90;;;;;;4950385;28;20134;-92
2023/09/27 10:20:12;;;;;;;0.80;0.80;;;23.80;99.90;;;;;;4942292;28;20027;-92
2023/09/27 10:22:42;;;;;;;0.55;0.55;;;23.90;99.90;;;;;;4946615;28;20928;-91
2023/09/27 10:25:23;;;;;;;1.27;1.13;;;24.00;99.90;;;;;;4950984;28;20026;-92
2023/09/27 10:28:01;;;;;;;1.75;0.75;;;24.00;99.90;;;;;;4950278;28;20027;-93
2023/09/27 10:31:06;;;;;;;1.38;1.33;;;24.00;99.90;;;;;;4951394;28;20110;-92
2023/09/27 10:33:32;;;;;;;2.45;1.65;;;23.80;99.90;;;;;;4932297;28;20055;-92
2023/09/27 10:36:01;;;;;;;0.60;0.60;;;23.70;99.90;;;;;;4952670;28;20026;-92
2023/09/27 10:38:49;;;;;;;1.10;1.10;;;23.60;99.90;;;;;;4950712;28;20039;-92
2023/09/27 10:41:38;;;;;;;0.70;0.70;;;23.70;99.90;;;;;;4951660;28;20078;-91
2023/09/27 10:44:06;;;;;;;0.52;0.52;;;23.60;99.90;;;;;;4951579;28;20329;-92
2023/09/27 10:46:49;;;;;;;1.23;1.13;;;23.50;99.90;;;;;;4952527;28;20329;-93
2023/09/27 10:49:25;;;;;;;9.18;0.80;;;23.40;99.90;;;;;;4952602;28;20042;-92
2023/09/27 10:51:52;;;;;;;1.58;1.50;;;23.40;99.90;;;;;;4966248;28;20061;-92
2023/09/27 10:54:23;;;;;;;0.95;0.95;;;23.40;99.90;;;;;;4950240;28;20023;-92
2023/09/27 10:56:52;;;;;;;1.45;0.70;;;23.30;99.90;;;;;;4968726;28;20027;-92
2023/09/27 10:59:28;;;;;;;2.95;0.75;;;23.20;99.90;;;;;;4948792;28;20197;-92
2023/09/27 11:02:02;;;;;;;0.65;0.65;;;23.20;99.90;;;;;;4949552;28;20496;-92
2023/09/27 11:04:29;;;;;;;0.88;0.88;;;23.30;99.90;;;;;;4958217;28;20034;-92
2023/09/27 11:06:56;;;;;;;0.70;0.70;;;23.40;99.90;;;;;;4953766;28;20041;-92
2023/09/27 11:09:23;;;;;;;1.00;1.00;;;23.40;99.90;;;;;;4949574;28;20054;-92
2023/09/27 11:11:54;;;;;;;0.70;0.70;;;23.50;99.90;;;;;;4951435;28;20027;-92
2023/09/27 11:14:31;;;;;;;1.00;1.00;;;23.60;99.90;;;;;;4949450;28;20145;-92
2023/09/27 11:17:15;;;;;;;1.17;1.17;;;23.60;99.90;;;;;;4952320;28;20082;-92
2023/09/27 11:19:40;;;;;;;0.93;0.93;;;23.60;99.90;;;;;;4950735;28;20047;-93
2023/09/27 11:22:06;;;;;;;0.80;0.80;;;23.60;99.90;;;;;;4953474;28;20058;-92
2023/09/27 11:24:40;;;;;;;0.98;0.98;;;23.60;99.90;;;;;;4951989;28;20023;-92
2023/09/27 11:27:07;;;;;;;1.33;1.30;;;23.60;99.90;;;;;;4971447;28;20084;-92
2023/09/27 11:29:33;;;;;;;0.50;0.50;;;23.50;99.90;;;;;;4971252;28;20016;-92
2023/09/27 11:31:58;;;;;;;1.15;1.15;;;23.60;99.90;;;;;;4971548;28;20035;-96
2023/09/27 11:34:24;;;;;;;0.98;0.98;;;23.60;99.90;;;;;;4989621;23;20116;-96
2023/09/27 11:36:52;;;;;;;0.63;0.63;;;23.60;99.90;;;;;;4984276;28;20074;-96
2023/09/27 11:39:26;;;;;;;1.25;1.20;;;23.70;99.90;;;;;;4964769;28;20496;-92
2023/09/27 11:41:59;;;;;;;0.77;0.77;;;23.80;99.90;;;;;;4962182;28;20528;-91
2023/09/27 11:44:26;;;;;;;3.00;2.00;;;23.90;99.90;;;;;;4962466;28;20046;-92
2023/09/27 11:47:05;;;;;;;0.47;0.47;;;24.00;99.90;;;;;;4972507;28;20027;-92
2023/09/27 11:49:30;;;;;;;0.52;0.52;;;24.00;99.90;;;;;;4953319;28;20030;-92
2023/09/27 11:51:56;;;;;;;3.95;1.13;;;24.20;99.90;;;;;;4955375;28;20015;-92
2023/09/27 11:54:22;;;;;;;1.10;1.00;;;24.20;99.90;;;;;;4955832;28;20067;-92
2023/09/27 11:56:48;;;;;;;1.50;1.40;;;24.20;99.90;;;;;;4960549;28;20034;-92
2023/09/27 11:59:13;;;;;;;0.70;0.70;;;24.20;99.90;;;;;;4964724;28;20030;-92
2023/09/27 12:01:39;;;;;;;0.80;0.80;;;24.30;99.90;;;;;;4959687;28;20026;-92
2023/09/27 12:04:05;;;;;;;0.68;0.68;;;24.30;99.90;;;;;;4962499;28;20026;-92
2023/09/27 12:06:32;;;;;;;3.92;0.60;;;24.30;99.90;;;;;;4960892;28;20016;-92
2023/09/27 12:08:59;;;;;;;0.70;0.70;;;24.10;99.80;;;;;;4955627;28;20423;-92
2023/09/27 12:11:25;;;;;;;0.70;0.70;;;24.10;99.90;;;;;;4956804;28;20035;-92
2023/09/27 12:13:51;;;;;;;0.93;0.60;;;24.10;99.90;;;;;;4953303;28;20027;-92
2023/09/27 12:16:19;;;;;;;0.80;0.80;;;24.10;99.90;;;;;;4962251;28;20133;-93
2023/09/27 12:18:45;;;;;;;0.85;0.63;;;24.00;99.90;;;;;;4961833;28;20035;-92
2023/09/27 12:21:11;;;;;;;0.50;0.50;;;23.90;99.90;;;;;;4958328;28;20355;-92
2023/09/27 12:23:36;;;;;;;0.80;0.55;;;23.90;99.90;;;;;;4963355;28;20455;-92
2023/09/27 12:26:02;;;;;;;0.70;0.70;;;23.90;99.90;;;;;;4957250;28;20026;-93
2023/09/27 12:28:28;;;;;;;0.60;0.60;;;23.80;99.90;;;;;;4963547;28;20037;-92
2023/09/27 12:30:54;;;;;;;0.60;0.60;;;23.80;99.90;;;;;;4958440;28;20023;-92
2023/09/27 12:33:19;;;;;;;0.95;0.95;;;23.80;99.90;;;;;;4962335;28;20045;-92
2023/09/27 12:35:46;;;;;;;0.50;0.50;;;23.80;99.90;;;;;;4962166;28;20122;-92
2023/09/27 12:38:12;;;;;;;0.63;0.63;;;23.80;99.90;;;;;;4963466;28;20228;-92
2023/09/27 12:40:38;;;;;;;0.70;0.70;;;23.80;99.90;;;;;;4962669;28;20023;-92
2023/09/27 12:43:04;;;;;;;0.98;0.80;;;23.80;99.90;;;;;;4956193;28;20027;-92
2023/09/27 12:45:31;;;;;;;0.57;0.57;;;23.80;99.90;;;;;;4962735;28;20039;-92
2023/09/27 12:47:57;;;;;;;1.63;1.52;;;23.80;99.90;;;;;;4962586;28;20073;-92
2023/09/27 12:50:30;;;;;;;1.85;1.25;;;23.80;99.90;;;;;;4959827;28;20070;-92
2023/09/27 12:52:56;;;;;;;;;;;23.80;99.90;;;;;;4962330;28;20050;-93
2023/09/27 12:55:22;;;;;;;0.50;0.50;;;23.90;99.90;;;;;;4959500;28;19953;-92